Time;durP1;ratioP1;P1;durP2;ratioP2;P2;SDS_P1;SDS_P2;PMS_P1;PMS_P2;Temp;Humidity;BMP_temperature;BMP_pressure;BME280_temperature;BME280_humidity;BME280_pressure;Samples;Min_cycle;Max_cycle;Signal;HPM_P1;HPM_P2
2021/09/13 00:01:18;;;;;;;12.40;10.13;;;;;;;15.63;73.75;100573.41;5079126;28;20052;-80
2021/09/13 00:03:45;;;;;;;16.15;9.68;;;;;;;15.64;74.13;100580.66;5078899;28;20049;-80
2021/09/13 00:06:13;;;;;;;12.63;9.85;;;;;;;15.65;74.13;100578.69;5076125;28;20057;-80
2021/09/13 00:08:40;;;;;;;13.45;9.80;;;;;;;15.70;74.06;100568.03;5063106;28;20427;-80
2021/09/13 00:11:07;;;;;;;10.20;9.20;;;;;;;15.72;74.06;100573.34;5080362;28;20055;-80
2021/09/13 00:13:35;;;;;;;10.15;9.07;;;;;;;15.78;73.81;100567.16;5044842;28;20053;-80
2021/09/13 00:16:05;;;;;;;10.95;9.70;;;;;;;15.85;73.63;100560.16;5039098;28;20064;-80
2021/09/13 00:18:33;;;;;;;11.55;9.30;;;;;;;15.89;73.56;100561.09;5042189;28;20053;-80
2021/09/13 00:21:01;;;;;;;11.98;9.65;;;;;;;15.88;73.38;100565.09;5060315;28;20139;-80
2021/09/13 00:23:28;;;;;;;12.25;10.00;;;;;;;15.93;73.55;100562.03;5058816;28;20405;-80
2021/09/13 00:25:56;;;;;;;11.18;9.63;;;;;;;15.96;73.57;100559.38;5059562;28;20507;-80
2021/09/13 00:28:26;;;;;;;12.25;9.80;;;;;;;15.98;73.41;100561.81;5061898;28;20056;-80
2021/09/13 00:30:53;;;;;;;10.93;9.93;;;;;;;16.04;73.20;100563.22;5062629;28;20490;-80
2021/09/13 00:33:22;;;;;;;14.20;9.60;;;;;;;16.03;73.13;100564.41;5062682;28;20490;-80
2021/09/13 00:35:50;;;;;;;11.10;9.63;;;;;;;15.91;73.29;100565.19;5062401;28;20064;-80
2021/09/13 00:38:17;;;;;;;11.95;10.20;;;;;;;15.98;73.55;100561.81;5062960;28;20466;-80
2021/09/13 00:40:44;;;;;;;13.85;9.68;;;;;;;16.05;73.20;100567.69;5063482;28;20402;-80
2021/09/13 00:43:12;;;;;;;12.82;10.27;;;;;;;16.00;73.19;100571.53;5061991;28;20052;-80
2021/09/13 00:45:40;;;;;;;10.98;9.80;;;;;;;16.08;73.19;100563.34;5062197;28;20053;-80
2021/09/13 00:48:08;;;;;;;11.85;9.90;;;;;;;16.03;73.25;100551.16;5083028;28;20059;-80
2021/09/13 00:50:37;;;;;;;11.98;9.80;;;;;;;16.06;73.18;100551.63;5071415;28;20049;-81
2021/09/13 00:53:05;;;;;;;11.43;9.52;;;;;;;16.07;73.03;100551.28;5062087;28;20059;-80
2021/09/13 00:55:32;;;;;;;12.98;8.93;;;;;;;16.12;73.12;100547.44;5061655;28;20052;-80
2021/09/13 00:58:00;;;;;;;12.48;9.13;;;;;;;16.07;73.21;100547.66;5061694;28;20056;-80
2021/09/13 01:00:28;;;;;;;11.65;10.45;;;;;;;16.07;73.20;100548.50;5062237;28;20053;-80
2021/09/13 01:02:55;;;;;;;10.50;9.48;;;;;;;15.97;73.64;100565.78;5061346;28;20049;-80
2021/09/13 01:05:23;;;;;;;10.98;9.02;;;;;;;16.11;73.25;100557.84;5062225;28;20048;-80
2021/09/13 01:07:52;;;;;;;11.68;9.25;;;;;;;16.20;72.90;100554.94;5045474;28;20052;-80
2021/09/13 01:10:24;;;;;;;12.05;9.27;;;;;;;16.20;73.07;100557.75;5042123;28;20421;-80
2021/09/13 01:12:52;;;;;;;9.55;8.55;;;;;;;16.27;72.79;100549.53;5050153;28;20056;-80
2021/09/13 01:15:19;;;;;;;10.25;9.23;;;;;;;16.32;72.67;100562.56;5062573;28;20053;-80
2021/09/13 01:17:47;;;;;;;11.82;9.35;;;;;;;16.31;72.39;100560.91;5062509;28;20060;-80
2021/09/13 01:20:15;;;;;;;9.85;8.90;;;;;;;16.35;72.16;100559.03;5062584;28;20057;-80
2021/09/13 01:22:46;;;;;;;10.43;9.32;;;;;;;16.33;72.40;100565.00;5060918;28;20072;-80
2021/09/13 01:25:14;;;;;;;11.80;9.55;;;;;;;16.36;72.47;100560.69;5029849;28;20057;-80
2021/09/13 01:27:42;;;;;;;11.32;8.60;;;;;;;16.39;72.33;100562.78;5042023;28;20049;-80
2021/09/13 01:30:10;;;;;;;9.95;8.95;;;;;;;16.46;71.91;100560.19;5042444;28;20463;-80
2021/09/13 01:32:38;;;;;;;12.70;9.13;;;;;;;16.48;71.87;100560.66;5042233;28;20049;-80
2021/09/13 01:35:06;;;;;;;11.15;8.63;;;;;;;16.52;71.53;100567.22;5042089;28;20050;-80
2021/09/13 01:37:33;;;;;;;9.13;8.23;;;;;;;16.52;71.67;100555.16;5040217;28;20490;-80
2021/09/13 01:40:01;;;;;;;9.63;8.23;;;;;;;16.52;71.42;100557.97;5040910;28;20103;-80
2021/09/13 01:42:30;;;;;;;11.90;8.80;;;;;;;16.51;71.36;100561.97;5061213;28;20056;-80
2021/09/13 01:44:58;;;;;;;9.77;8.57;;;;;;;16.49;71.49;100562.31;5061244;28;20060;-80
2021/09/13 01:47:25;;;;;;;11.07;9.18;;;;;;;16.50;72.03;100561.13;5061570;28;20061;-80
2021/09/13 01:49:53;;;;;;;9.77;8.60;;;;;;;16.43;72.15;100558.91;5061350;28;20053;-80
2021/09/13 01:52:20;;;;;;;10.40;8.80;;;;;;;16.44;72.16;100556.91;5060954;28;20053;-80
2021/09/13 01:54:47;;;;;;;11.52;10.07;;;;;;;16.39;72.47;100551.53;5060790;28;20060;-80
2021/09/13 01:57:15;;;;;;;12.18;10.15;;;;;;;16.38;72.32;100555.53;5060456;28;20410;-80
2021/09/13 01:59:44;;;;;;;12.27;9.60;;;;;;;16.34;72.48;100551.78;5061087;28;20423;-80
2021/09/13 02:02:11;;;;;;;11.63;10.40;;;;;;;16.28;72.65;100542.75;5061036;28;20049;-80
2021/09/13 02:04:40;;;;;;;13.68;11.27;;;;;;;16.24;72.72;100539.81;5060337;28;20069;-80
2021/09/13 02:07:08;;;;;;;14.02;10.88;;;;;;;16.24;72.72;100544.63;5032110;28;20064;-80
2021/09/13 02:09:36;;;;;;;10.98;9.80;;;;;;;16.21;72.80;100551.78;5052688;28;20049;-79
2021/09/13 02:12:04;;;;;;;12.27;10.77;;;;;;;16.18;72.70;100549.66;5079102;28;20497;-80
2021/09/13 02:14:31;;;;;;;12.88;11.48;;;;;;;16.13;72.96;100547.09;5080754;28;20045;-80
2021/09/13 02:17:00;;;;;;;12.82;11.52;;;;;;;16.03;73.36;100544.72;5080493;28;20057;-80
2021/09/13 02:19:27;;;;;;;13.10;10.90;;;;;;;16.04;72.90;100535.13;5081210;28;20053;-80
2021/09/13 02:21:55;;;;;;;13.15;11.73;;;;;;;16.02;72.63;100534.66;5080312;28;20052;-80
2021/09/13 02:24:22;;;;;;;15.60;12.65;;;;;;;15.96;72.74;100530.47;5072468;28;20049;-80
2021/09/13 02:26:50;;;;;;;14.38;12.88;;;;;;;15.81;73.12;100532.78;5061009;28;20064;-80
2021/09/13 02:29:17;;;;;;;14.82;12.45;;;;;;;15.70;73.67;100530.72;5065308;28;20497;-80
2021/09/13 02:31:45;;;;;;;16.83;12.80;;;;;;;15.67;73.75;100537.03;5079397;28;20048;-80
2021/09/13 02:34:14;;;;;;;14.00;12.50;;;;;;;15.59;73.77;100536.78;5079567;28;20045;-80
2021/09/13 02:36:41;;;;;;;13.23;11.90;;;;;;;15.34;74.61;100535.88;5079526;28;20052;-80
2021/09/13 02:39:10;;;;;;;13.68;11.15;;;;;;;15.41;74.24;100536.16;5070415;28;20053;-80
2021/09/13 02:41:38;;;;;;;12.45;11.10;;;;;;;15.38;74.07;100541.63;5060806;28;20056;-80
2021/09/13 02:44:06;;;;;;;12.38;10.98;;;;;;;15.32;74.33;100538.22;5060462;28;20413;-80
2021/09/13 02:46:33;;;;;;;12.55;10.73;;;;;;;15.22;74.77;100544.25;5060332;28;20060;-80
2021/09/13 02:49:00;;;;;;;11.50;10.27;;;;;;;15.25;74.48;100542.75;5060095;28;20056;-80
2021/09/13 02:51:29;;;;;;;12.10;10.80;;;;;;;15.22;74.63;100553.50;5078094;28;20071;-80
2021/09/13 02:53:57;;;;;;;11.48;10.27;;;;;;;15.19;74.55;100542.94;5071994;28;20057;-80
2021/09/13 02:56:24;;;;;;;12.60;10.43;;;;;;;15.07;75.08;100548.50;5060184;28;20075;-80
2021/09/13 02:58:52;;;;;;;14.73;10.40;;;;;;;15.08;75.33;100554.97;5061349;28;20056;-80
2021/09/13 03:01:19;;;;;;;11.65;10.13;;;;;;;15.07;74.94;100548.50;5060221;28;20511;-80
2021/09/13 03:03:47;;;;;;;12.00;10.32;;;;;;;15.09;74.62;100556.59;5060300;28;20049;-80
2021/09/13 03:06:14;;;;;;;12.10;10.23;;;;;;;15.07;74.35;100551.31;5059764;28;20053;-80
2021/09/13 03:08:43;;;;;;;12.13;10.90;;;;;;;15.07;74.28;100547.69;5065325;28;20064;-80
2021/09/13 03:11:11;;;;;;;14.70;11.40;;;;;;;15.06;74.04;100554.47;5058996;28;20065;-80
2021/09/13 03:13:38;;;;;;;15.27;12.45;;;;;;;15.01;74.23;100545.09;5039909;28;20064;-80
2021/09/13 03:16:05;;;;;;;12.82;11.38;;;;;;;14.96;74.16;100550.91;5040469;28;20049;-80
2021/09/13 03:18:33;;;;;;;12.82;11.52;;;;;;;14.91;74.62;100553.94;5039756;28;20068;-80
2021/09/13 03:21:00;;;;;;;13.23;11.82;;;;;;;14.89;74.39;100547.84;5040374;28;20057;-80
2021/09/13 03:23:28;;;;;;;12.57;11.27;;;;;;;14.87;74.65;100544.56;5041628;28;20053;-80
2021/09/13 03:25:56;;;;;;;12.73;11.35;;;;;;;14.79;74.66;100549.06;5040869;28;20061;-80
2021/09/13 03:28:24;;;;;;;14.30;11.20;;;;;;;14.79;74.88;100548.25;5040780;28;20053;-81
2021/09/13 03:30:51;;;;;;;13.63;12.02;;;;;;;14.75;75.37;100542.50;5040197;28;20058;-80
2021/09/13 03:33:18;;;;;;;13.90;12.30;;;;;;;14.75;75.47;100544.47;5039907;28;20470;-80
2021/09/13 03:35:46;;;;;;;13.23;11.27;;;;;;;14.78;75.53;100544.63;5039614;28;20053;-80
2021/09/13 03:38:13;;;;;;;12.35;11.05;;;;;;;14.79;75.68;100539.84;5041106;28;20049;-80
2021/09/13 03:40:41;;;;;;;14.50;12.25;;;;;;;14.79;75.79;100546.25;5040556;28;20053;-80
2021/09/13 03:43:10;;;;;;;14.00;12.05;;;;;;;14.87;75.68;100549.34;5041031;28;20049;-81
2021/09/13 03:45:37;;;;;;;15.45;12.50;;;;;;;14.87;75.24;100544.56;5040940;28;20405;-81
2021/09/13 03:48:05;;;;;;;14.35;12.60;;;;;;;14.90;75.22;100548.66;5041391;28;20056;-80
2021/09/13 03:50:33;;;;;;;14.15;11.68;;;;;;;14.87;75.27;100549.34;5050395;28;20123;-80
2021/09/13 03:53:00;;;;;;;14.18;12.45;;;;;;;14.82;75.36;100541.94;5059891;28;20053;-81
2021/09/13 03:55:28;;;;;;;18.10;14.50;;;;;;;14.80;75.48;100545.09;5060280;28;20053;-81
2021/09/13 03:57:55;;;;;;;17.33;13.90;;;;;;;14.81;74.93;100545.91;5061102;28;20053;-81
2021/09/13 04:00:24;;;;;;;16.23;13.35;;;;;;;14.81;74.94;100538.31;5059677;28;20057;-80
2021/09/13 04:02:51;;;;;;;16.27;12.38;;;;;;;14.77;75.08;100548.56;5063196;28;20049;-80
2021/09/13 04:05:21;;;;;;;15.90;13.50;;;;;;;14.71;74.76;100547.13;5063527;28;20052;-80
2021/09/13 04:10:49;;;;;;;17.00;15.20;;;;;;;14.62;74.61;100532.38;5080466;27;20626;-69
2021/09/13 04:13:17;;;;;;;17.60;14.95;;;;;;;14.55;75.03;100532.91;5070162;28;20053;-69
2021/09/13 04:15:45;;;;;;;19.30;14.38;;;;;;;14.33;75.99;100528.38;5070371;28;20057;-69
2021/09/13 04:18:12;;;;;;;18.48;14.10;;;;;;;14.41;75.89;100529.50;5070839;28;20048;-69
2021/09/13 04:20:39;;;;;;;17.85;14.13;;;;;;;14.40;75.73;100528.69;5069888;28;20048;-69
2021/09/13 04:23:06;;;;;;;18.80;14.00;;;;;;;14.24;76.31;100527.63;5070688;28;20064;-69
2021/09/13 04:25:34;;;;;;;18.50;14.70;;;;;;;14.35;75.67;100522.44;5051414;28;20053;-69
2021/09/13 04:28:03;;;;;;;16.70;13.60;;;;;;;14.32;75.66;100525.91;5050240;28;20061;-69
2021/09/13 04:30:30;;;;;;;18.17;15.30;;;;;;;14.32;75.79;100529.56;5054536;28;20045;-68
2021/09/13 04:32:57;;;;;;;17.45;15.02;;;;;;;14.33;75.25;100533.19;5069777;28;20056;-69
2021/09/13 04:35:25;;;;;;;19.17;15.23;;;;;;;14.21;76.12;100528.28;5069271;28;20486;-69
2021/09/13 04:37:52;;;;;;;16.50;14.18;;;;;;;14.28;75.49;100531.41;5069939;28;20413;-69
2021/09/13 04:40:20;;;;;;;16.40;13.98;;;;;;;14.31;75.15;100529.88;5052553;28;20056;-69
2021/09/13 04:42:47;;;;;;;17.48;13.23;;;;;;;14.29;74.83;100532.22;5067666;28;20059;-69
2021/09/13 04:45:16;;;;;;;16.60;13.38;;;;;;;14.29;74.98;100532.22;5049601;28;20529;-68
2021/09/13 04:47:43;;;;;;;18.23;13.75;;;;;;;14.25;74.77;100529.25;5049419;28;20060;-68
2021/09/13 04:50:11;;;;;;;17.98;14.13;;;;;;;14.25;74.75;100528.44;5057194;28;20048;-69
2021/09/13 04:52:39;;;;;;;16.98;13.55;;;;;;;14.23;74.75;100537.19;5069431;28;20060;-69
2021/09/13 04:55:07;;;;;;;15.60;13.23;;;;;;;14.26;74.71;100532.88;5050080;28;20049;-69
2021/09/13 04:57:34;;;;;;;14.80;12.57;;;;;;;14.29;75.10;100535.81;5049325;28;20061;-69
2021/09/13 05:00:02;;;;;;;18.30;12.52;;;;;;;14.33;75.23;100535.97;5049798;28;20057;-69
2021/09/13 05:02:30;;;;;;;15.40;12.00;;;;;;;14.40;74.64;100547.47;5049384;28;20064;-69
2021/09/13 05:04:57;;;;;;;13.90;12.23;;;;;;;14.48;74.06;100546.59;5049288;28;20056;-69
2021/09/13 05:07:25;;;;;;;13.93;12.00;;;;;;;14.55;73.94;100544.13;5062327;28;20049;-69
2021/09/13 05:09:52;;;;;;;14.75;12.35;;;;;;;14.61;74.07;100551.19;5069012;28;20063;-69
2021/09/13 05:12:20;;;;;;;15.00;11.95;;;;;;;14.69;73.73;100554.25;5060215;28;20055;-69
2021/09/13 05:14:47;;;;;;;14.65;12.10;;;;;;;14.62;74.29;100557.59;5058777;28;20056;-69
2021/09/13 05:17:14;;;;;;;13.95;11.27;;;;;;;14.65;74.02;100564.50;5049498;28;20049;-69
2021/09/13 05:19:43;;;;;;;13.90;11.77;;;;;;;14.66;74.29;100560.53;5066221;28;20048;-69
2021/09/13 05:22:11;;;;;;;14.05;11.65;;;;;;;14.85;73.53;100569.31;5054783;28;20060;-69
2021/09/13 05:24:38;;;;;;;15.38;11.93;;;;;;;14.99;73.15;100569.88;5035211;28;20068;-69
2021/09/13 05:27:05;;;;;;;16.08;11.82;;;;;;;15.10;72.62;100572.25;5036196;28;20383;-69
2021/09/13 05:29:33;;;;;;;14.45;11.70;;;;;;;15.17;72.52;100570.53;5036116;28;20053;-69
2021/09/13 05:32:00;;;;;;;13.70;11.35;;;;;;;15.26;72.57;100573.25;5035410;28;20058;-69
2021/09/13 05:34:28;;;;;;;15.18;11.40;;;;;;;15.33;72.34;100578.31;5048412;28;20049;-69
2021/09/13 05:36:57;;;;;;;14.43;11.95;;;;;;;15.39;72.39;100574.97;5045992;28;20052;-69
2021/09/13 05:39:24;;;;;;;19.15;12.68;;;;;;;15.48;72.28;100580.50;5053817;28;20441;-69
2021/09/13 05:41:52;;;;;;;18.85;12.43;;;;;;;15.53;72.33;100576.66;5035688;28;20056;-69
2021/09/13 05:44:19;;;;;;;17.40;12.10;;;;;;;15.59;72.35;100575.28;5040552;28;20049;-69
2021/09/13 05:46:46;;;;;;;13.90;11.95;;;;;;;15.69;71.91;100585.25;5040127;28;20053;-69
2021/09/13 05:49:14;;;;;;;15.57;12.45;;;;;;;15.78;71.41;100584.00;5041600;28;20414;-69
2021/09/13 05:51:45;;;;;;;15.73;13.38;;;;;;;15.48;73.59;100588.91;5047095;28;20053;-56
2021/09/13 05:54:14;;;;;;;14.85;13.13;;;;;;;15.07;74.96;100599.00;5037132;28;20501;-56
2021/09/13 05:56:44;;;;;;;19.60;14.33;;;;;;;14.99;75.59;100586.69;5039891;28;20486;-58
2021/09/13 05:59:12;;;;;;;18.52;14.80;;;;;;;15.12;75.61;100595.16;5048849;28;20052;-58
2021/09/13 06:01:39;;;;;;;15.70;12.07;;;;;;;15.05;75.93;100595.72;5054740;28;20053;-57
2021/09/13 06:04:09;;;;;;;14.65;12.48;;;;;;;15.23;75.67;100599.22;5036599;28;20053;-58
2021/09/13 06:06:37;;;;;;;15.55;12.95;;;;;;;15.38;75.17;100595.78;5042364;28;20056;-57
2021/09/13 06:09:05;;;;;;;15.55;12.32;;;;;;;15.71;73.74;100594.97;5053640;28;20063;-56
2021/09/13 06:11:34;;;;;;;13.98;11.93;;;;;;;15.98;72.48;100595.50;5054251;28;20053;-69
2021/09/13 06:14:02;;;;;;;16.42;12.57;;;;;;;16.01;72.43;100597.66;5047110;28;20068;-69
2021/09/13 06:16:29;;;;;;;16.42;12.52;;;;;;;16.27;71.45;100604.94;5034494;28;20053;-69
2021/09/13 06:18:57;;;;;;;15.57;12.05;;;;;;;16.44;70.76;100597.13;5034899;28;20057;-69
2021/09/13 06:21:24;;;;;;;16.40;12.35;;;;;;;16.51;70.74;100609.75;5035107;28;20049;-69
2021/09/13 06:23:52;;;;;;;15.68;11.95;;;;;;;16.73;70.21;100597.19;5038670;28;20044;-69
2021/09/13 06:26:19;;;;;;;15.38;11.77;;;;;;;16.91;69.55;100592.19;5044560;28;20057;-69
2021/09/13 06:28:48;;;;;;;12.45;11.13;;;;;;;16.99;69.18;100592.03;5034814;28;20057;-69
2021/09/13 06:31:16;;;;;;;13.50;12.10;;;;;;;17.06;68.93;100597.06;5036761;28;20045;-69
2021/09/13 06:33:44;;;;;;;14.02;12.15;;;;;;;17.25;68.38;100599.22;5042769;28;20487;-69
2021/09/13 06:36:11;;;;;;;15.43;12.38;;;;;;;17.46;67.52;100604.69;5048632;28;20060;-69
2021/09/13 06:38:38;;;;;;;13.75;12.35;;;;;;;17.64;67.42;100600.38;5051153;28;20064;-69
2021/09/13 06:41:06;;;;;;;13.80;11.18;;;;;;;17.91;66.25;100608.34;5053401;28;20052;-69
2021/09/13 06:43:34;;;;;;;12.73;11.00;;;;;;;18.12;65.48;100608.13;5052408;28;20064;-69
2021/09/13 06:46:10;;;;;;;15.75;11.27;;;;;;;18.29;64.71;100607.78;5051528;28;20064;-69
2021/09/13 06:48:41;;;;;;;14.05;11.40;;;;;;;18.32;64.19;100600.59;5034356;28;20064;-69
2021/09/13 06:51:09;;;;;;;11.65;10.43;;;;;;;18.57;63.81;100609.66;5043524;28;20049;-69
2021/09/13 06:53:36;;;;;;;12.85;10.25;;;;;;;18.71;62.98;100604.38;5048512;28;20049;-69
2021/09/13 06:56:05;;;;;;;12.43;11.13;;;;;;;18.79;62.53;100606.22;5040799;28;20053;-68
2021/09/13 06:58:35;;;;;;;13.05;10.20;;;;;;;18.94;62.39;100606.53;5044630;28;20389;-68
2021/09/13 07:01:05;;;;;;;13.25;10.57;;;;;;;19.02;62.08;100608.31;5040372;28;20049;-68
2021/09/13 07:03:32;;;;;;;11.90;10.00;;;;;;;19.05;61.75;100608.41;5043360;28;20498;-68
2021/09/13 07:06:00;;;;;;;12.38;11.02;;;;;;;19.21;61.63;100605.56;5044687;28;20056;-68
2021/09/13 07:08:27;;;;;;;12.05;10.73;;;;;;;19.63;60.17;100607.63;5045367;28;20052;-68
2021/09/13 07:10:55;;;;;;;11.18;9.93;;;;;;;20.16;58.62;100607.03;5043016;28;20418;-68
2021/09/13 07:13:22;;;;;;;11.52;10.32;;;;;;;20.61;57.28;100610.25;5050833;28;20056;-68
2021/09/13 07:15:50;;;;;;;10.93;9.82;;;;;;;20.79;56.67;100607.69;5050056;28;20068;-68
2021/09/13 07:18:19;;;;;;;14.13;10.93;;;;;;;21.02;56.49;100601.94;5051749;28;20052;-68
2021/09/13 07:20:46;;;;;;;13.27;10.85;;;;;;;21.47;54.92;100609.47;5040097;28;20061;-68
2021/09/13 07:23:14;;;;;;;11.68;10.38;;;;;;;22.05;53.53;100610.16;5048714;28;20049;-68
2021/09/13 07:25:42;;;;;;;11.85;9.25;;;;;;;22.68;51.85;100600.59;5043310;28;20061;-68
2021/09/13 07:28:09;;;;;;;11.27;9.32;;;;;;;23.60;50.02;100597.84;5045872;28;20056;-68
2021/09/13 07:30:37;;;;;;;13.02;9.50;;;;;;;24.52;47.24;100602.94;5050802;28;20060;-68
2021/09/13 07:33:05;;;;;;;14.32;9.45;;;;;;;25.31;45.40;100602.03;5045139;28;20064;-68
2021/09/13 07:35:34;;;;;;;11.05;9.18;;;;;;;25.82;44.09;100597.72;5051485;28;20048;-68
2021/09/13 07:38:01;;;;;;;10.45;9.45;;;;;;;26.57;42.20;100602.13;5051636;28;20055;-68
2021/09/13 07:40:29;;;;;;;11.10;9.02;;;;;;;27.24;40.52;100594.13;5051835;28;20509;-68
2021/09/13 07:42:56;;;;;;;10.88;9.77;;;;;;;27.76;39.38;100598.78;5049164;28;20049;-69
2021/09/13 07:45:24;;;;;;;10.63;9.52;;;;;;;28.43;38.28;100599.03;5047286;28;20057;-68
2021/09/13 07:47:52;;;;;;;10.57;9.48;;;;;;;28.20;38.02;100601.84;5052331;28;20056;-68
2021/09/13 07:50:20;;;;;;;11.00;9.95;;;;;;;28.17;38.12;100614.19;5050823;28;20047;-69
2021/09/13 07:52:49;;;;;;;13.82;10.57;;;;;;;28.03;38.59;100607.41;5047693;28;20076;-67
2021/09/13 07:55:16;;;;;;;12.05;10.77;;;;;;;28.75;37.50;100606.28;5046771;28;20072;-68
2021/09/13 07:57:44;;;;;;;11.57;10.40;;;;;;;29.39;36.17;100607.13;5044513;28;20406;-69
2021/09/13 08:00:13;;;;;;;11.80;10.60;;;;;;;29.71;35.08;100606.50;5052385;28;20057;-69
2021/09/13 08:02:41;;;;;;;11.60;10.40;;;;;;;30.12;35.04;100602.25;5039318;28;20495;-68
2021/09/13 08:05:10;;;;;;;12.13;11.02;;;;;;;30.88;33.50;100603.28;5052991;28;20053;-69
2021/09/13 08:07:37;;;;;;;;;;;;;;;31.26;32.63;100599.78;5052101;28;20065;-69
2021/09/13 08:10:07;;;;;;;12.88;10.95;;;;;;;32.29;30.67;100598.69;5051616;28;19932;-69
2021/09/13 08:12:34;;;;;;;12.77;11.43;;;;;;;32.78;29.36;100596.69;5045101;28;20049;-69
2021/09/13 08:15:01;;;;;;;14.52;11.25;;;;;;;33.48;28.85;100600.34;5048662;28;20418;-69
2021/09/13 08:17:29;;;;;;;12.07;10.88;;;;;;;34.06;28.08;100599.75;5046780;28;20060;-69
2021/09/13 08:19:56;;;;;;;12.15;10.95;;;;;;;34.91;26.23;100593.75;5051603;28;20068;-69
2021/09/13 08:22:24;;;;;;;13.23;11.20;;;;;;;35.26;25.43;100596.34;5049926;28;20128;-69
2021/09/13 08:24:53;;;;;;;12.73;10.85;;;;;;;35.92;25.42;100596.56;5044229;28;20466;-69
2021/09/13 08:27:22;;;;;;;11.32;10.25;;;;;;;36.27;25.02;100609.84;5051725;28;20053;-68
2021/09/13 08:29:50;;;;;;;12.63;11.05;;;;;;;36.46;24.26;100613.44;5051855;28;20175;-69
2021/09/13 08:32:17;;;;;;;18.25;13.32;;;;;;;36.74;24.10;100614.88;5050340;28;20053;-68
2021/09/13 08:34:47;;;;;;;12.73;11.37;;;;;;;35.94;24.66;100628.75;5052423;28;20045;-69
2021/09/13 08:37:14;;;;;;;12.82;11.50;;;;;;;35.67;24.95;100629.63;5046054;28;20049;-68
2021/09/13 08:39:42;;;;;;;11.57;10.40;;;;;;;36.13;24.46;100631.59;5046947;28;20053;-68
2021/09/13 08:42:09;;;;;;;11.67;10.40;;;;;;;36.24;24.57;100631.91;5050764;28;20053;-68
2021/09/13 08:44:40;;;;;;;12.13;10.93;;;;;;;36.33;24.21;100633.94;5051186;28;20049;-68
2021/09/13 08:47:14;;;;;;;17.70;9.68;;;;;;;37.10;23.30;100636.25;5046381;28;20824;-69
2021/09/13 08:49:46;;;;;;;13.40;11.10;;;;;;;38.09;22.01;100630.50;5050199;28;20056;-69
2021/09/13 08:52:14;;;;;;;9.98;9.07;;;;;;;38.63;21.38;100636.91;5048012;28;20053;-69
2021/09/13 08:54:41;;;;;;;12.45;10.13;;;;;;;38.47;21.29;100635.34;5048343;28;20045;-69
2021/09/13 08:57:09;;;;;;;10.73;9.73;;;;;;;39.21;20.57;100634.25;5049388;28;20408;-69
2021/09/13 08:59:39;;;;;;;11.43;10.32;;;;;;;39.64;19.97;100636.59;5053918;28;20049;-69
2021/09/13 09:02:07;;;;;;;11.70;10.65;;;;;;;39.79;18.89;100631.44;5051307;28;20414;-69
2021/09/13 09:04:39;;;;;;;11.35;10.25;;;;;;;40.12;19.04;100636.00;5056174;28;20045;-69
2021/09/13 09:07:10;;;;;;;10.95;9.95;;;;;;;40.92;18.20;100644.78;5053804;28;20059;-69
2021/09/13 09:09:37;;;;;;;10.68;9.77;;;;;;;41.55;17.42;100649.56;5048204;28;20052;-69
2021/09/13 09:12:09;;;;;;;9.73;8.82;;;;;;;41.90;17.20;100639.53;5045420;28;20049;-69
2021/09/13 09:14:42;;;;;;;9.55;8.70;;;;;;;42.64;17.08;100639.50;5051961;28;20053;-69
2021/09/13 09:17:14;;;;;;;11.20;9.35;;;;;;;42.97;16.70;100642.34;5045107;28;20045;-69
2021/09/13 09:19:45;;;;;;;9.45;8.52;;;;;;;43.27;16.18;100646.78;5054799;28;20128;-69
2021/09/13 09:22:24;;;;;;;9.57;8.77;;;;;;;43.41;15.83;100645.63;5055822;28;20052;-69
2021/09/13 09:24:52;;;;;;;9.15;8.35;;;;;;;43.77;15.68;100654.50;5041548;28;20052;-69
2021/09/13 09:27:20;;;;;;;10.45;9.25;;;;;;;43.86;15.40;100650.41;5039894;28;20415;-69
2021/09/13 09:29:50;;;;;;;9.98;9.05;;;;;;;43.85;15.76;100637.88;5035317;28;20521;-69
2021/09/13 09:32:23;;;;;;;8.57;7.88;;;;;;;44.09;15.50;100651.06;5054001;28;20056;-69
2021/09/13 09:34:51;;;;;;;9.77;8.88;;;;;;;43.90;15.64;100645.06;5049365;28;20049;-69
2021/09/13 09:37:19;;;;;;;9.85;8.93;;;;;;;43.75;15.42;100639.56;5048306;28;20049;-69
2021/09/13 09:39:49;;;;;;;8.68;7.95;;;;;;;43.85;15.38;100643.75;5038377;28;20056;-69
2021/09/13 09:42:29;;;;;;;9.10;8.18;;;;;;;44.13;14.86;100631.78;5040527;28;20049;-69
2021/09/13 09:44:59;;;;;;;9.32;8.52;;;;;;;44.46;14.66;100640.84;5035287;28;20053;-69
2021/09/13 09:47:27;;;;;;;8.07;7.30;;;;;;;45.12;13.96;100637.69;5044452;28;20053;-69
2021/09/13 09:49:56;;;;;;;7.45;6.75;;;;;;;45.44;14.11;100637.78;5055176;28;20492;-69
2021/09/13 09:52:33;;;;;;;6.30;5.70;;;;;;;45.17;12.90;100634.69;5046655;28;20053;-69
2021/09/13 09:55:28;;;;;;;7.32;6.57;;;;;;;44.92;13.94;100636.88;5055129;28;20049;-69
2021/09/13 09:58:06;;;;;;;5.72;5.22;;;;;;;45.03;13.37;100632.22;5035144;28;20053;-70
2021/09/13 10:00:37;;;;;;;6.57;5.97;;;;;;;45.02;13.57;100631.38;5052192;28;20405;-69
2021/09/13 10:03:04;;;;;;;6.50;5.90;;;;;;;45.18;12.87;100615.66;5050611;28;20059;-69
2021/09/13 10:05:35;;;;;;;;;;;;;;;44.27;13.58;100620.16;5055151;28;20049;-69
2021/09/13 10:08:04;;;;;;;7.38;6.18;;;;;;;44.21;14.41;100617.31;5049042;28;19921;-70
2021/09/13 10:10:33;;;;;;;6.00;5.40;;;;;;;44.99;13.31;100614.88;5037881;28;20505;-69
2021/09/13 10:13:02;;;;;;;6.82;5.90;;;;;;;45.74;13.07;100616.22;5054579;28;20053;-69
2021/09/13 10:15:30;;;;;;;5.85;5.22;;;;;;;45.42;13.32;100605.19;5053694;28;20045;-70
2021/09/13 10:17:58;;;;;;;;;;;;;;;45.94;12.42;100603.81;5054538;28;20057;-70
2021/09/13 10:20:26;;;;;;;5.40;4.70;;;;;;;45.30;12.81;100606.69;5054489;28;20266;-69
2021/09/13 10:22:55;;;;;;;6.13;4.88;;;;;;;45.36;12.51;100610.34;5046280;28;20486;-69
2021/09/13 10:25:28;;;;;;;4.80;4.35;;;;;;;45.83;12.46;100598.16;5038550;28;20495;-69
2021/09/13 10:28:03;;;;;;;6.00;5.25;;;;;;;44.98;12.34;100596.44;5052108;28;20049;-69
2021/09/13 10:30:33;;;;;;;5.30;4.80;;;;;;;45.28;12.22;100598.44;5054547;28;20405;-69
2021/09/13 10:33:15;;;;;;;6.03;4.80;;;;;;;45.37;12.56;100598.03;5053960;28;20414;-69
2021/09/13 10:35:57;;;;;;;5.38;4.75;;;;;;;45.00;12.95;100595.06;5044010;28;20057;-69
2021/09/13 10:38:45;;;;;;;6.35;4.88;;;;;;;43.73;13.32;100601.94;5049679;28;20422;-69
2021/09/13 10:41:59;;;;;;;5.10;4.60;;;;;;;45.49;12.39;100592.00;5041477;28;20053;-69
2021/09/13 10:44:31;;;;;;;5.53;4.60;;;;;;;45.92;11.89;100582.19;4987778;28;20057;-69
2021/09/13 10:47:02;;;;;;;6.80;4.43;;;;;;;46.24;12.42;100585.09;5038454;28;20045;-69
2021/09/13 10:49:31;;;;;;;5.13;4.53;;;;;;;46.30;11.85;100590.91;5049823;28;20390;-69
2021/09/13 10:52:33;;;;;;;4.50;3.80;;;;;;;45.88;12.25;100582.53;5054010;28;20418;-69
2021/09/13 10:55:33;;;;;;;5.30;4.32;;;;;;;45.88;11.68;100579.56;5035353;28;20064;-69
2021/09/13 10:58:03;;;;;;;5.00;4.10;;;;;;;46.23;11.79;100577.63;5036826;28;20053;-69
2021/09/13 11:01:01;;;;;;;5.13;4.03;;;;;;;45.21;12.12;100577.66;5046945;28;20058;-69
2021/09/13 11:03:40;;;;;;;4.38;3.97;;;;;;;46.01;11.87;100569.19;5033882;28;20045;-69
2021/09/13 11:06:35;;;;;;;5.03;4.38;;;;;;;46.58;11.80;100572.69;5046092;28;20136;-69
2021/09/13 11:09:09;;;;;;;4.88;4.47;;;;;;;46.89;11.36;100568.00;5053336;28;20517;-69
2021/09/13 11:11:41;;;;;;;4.90;4.20;;;;;;;47.14;11.13;100558.88;5052324;28;20056;-69
2021/09/13 11:14:10;;;;;;;4.28;3.63;;;;;;;46.74;11.30;100556.78;5047977;28;20049;-69
2021/09/13 11:16:39;;;;;;;5.57;3.60;;;;;;;47.02;10.40;100563.47;5037361;28;20060;-69
2021/09/13 11:19:10;;;;;;;4.05;3.65;;;;;;;46.89;10.79;100564.28;5035449;28;20060;-69
2021/09/13 11:21:44;;;;;;;4.40;3.30;;;;;;;46.60;10.98;100563.28;5034163;28;20049;-69
2021/09/13 11:24:14;;;;;;;3.90;3.13;;;;;;;45.82;11.48;100566.31;5035904;28;20049;-69
2021/09/13 11:26:44;;;;;;;4.47;3.05;;;;;;;45.36;11.84;100566.22;5044757;28;20049;-69